Data for 12/13/2010

Time Sea-Level Adjusted Pressure Absolute Pressure Temperature Relative Humidity Dew Point   
(mb) (inHg) (mb) (inHg) (C) (F) (%) (C) (F)
00:05 1017 30.03 846 24.98 7.9 46.3 39 -5.2 22.6
00:10 1017 30.03 846 24.98 7.9 46.3 38 -5.5 22.2
00:15 1017 30.03 846 24.98 8.2 46.7 39 -4.8 23.3
00:20 1017 30.03 847 25.01 7.8 46.1 39 -5.4 22.3
00:25 1017 30.03 846 24.98 8 46.5 39 -5 23.1
00:30 1017 30.03 846 24.98 8 46.4 40 -4.7 23.6
00:35 1017 30.03 846 24.98 7.8 46.1 41 -4.7 23.5
00:40 1017 30.03 846 24.98 7.6 45.7 42 -4.4 24.1
00:45 1017 30.03 846 24.98 7.4 45.3 43 -4.4 24.2
00:50 1017 30.03 846 24.98 7.6 45.7 41 -4.7 23.5
00:55 1017 30.03 846 24.98 7.4 45.3 44 -4.2 24.5
01:00 1017 30.03 846 24.98 7.1 44.7 44 -4.4 24
01:05 1017 30.03 846 24.98 7.1 44.8 44 -4.2 24.4
01:10 1017 30.03 846 24.98 7 44.5 45 -4.2 24.5
01:15 1017 30.03 846 24.98 6.8 44.2 45 -4.3 24.2
01:20 1017 30.03 846 24.98 6.7 44.1 45 -4.3 24.2
01:25 1017 30.03 846 24.98 6.6 44 45 -4.4 24.1
01:30 1017 30.03 846 24.98 6.8 44.3 44 -4.4 24
01:35 1017 30.03 847 25.01 6.8 44.3 46 -4 24.7
01:40 1017 30.03 846 24.98 6.6 43.9 47 -3.9 24.9
01:45 1017 30.03 846 24.98 6.4 43.6 47 -4 24.9
01:50 1017 30.03 846 24.98 6.3 43.3 49 -3.7 25.3
01:55 1017 30.03 846 24.98 6.1 42.9 49 -3.7 25.3
02:00 1017 30.03 847 25.01 6 42.9 49 -3.7 25.3
02:05 1017 30.03 847 25.01 5.9 42.7 50 -3.8 25.2
02:10 1017 30.03 846 24.98 6.1 43 48 -4.2 24.5
02:15 1017 30.03 846 24.98 6.5 43.6 47 -4 24.8
02:20 1017 30.03 846 24.98 6.4 43.5 47 -4 24.8
02:25 1017 30.03 846 24.98 6.5 43.6 47 -3.9 24.9
02:30 1017 30.03 846 24.98 6.5 43.7 48 -3.8 25.1
02:35 1017 30.03 846 24.98 6.5 43.7 47 -3.9 24.9
02:40 1017 30.03 846 24.98 6.4 43.5 48 -3.9 25
02:45 1017 30.03 846 24.98 6.4 43.4 48 -3.8 25.1
02:50 1017 30.03 846 24.98 6.3 43.3 50 -3.4 25.8
02:55 1017 30.03 846 24.98 6 42.8 51 -3.4 25.8
03:00 1017 30.03 846 24.98 5.8 42.5 51 -3.5 25.6
03:05 1017 30.03 846 24.98 5.9 42.6 51 -3.4 25.8
03:10 1017 30.03 846 24.98 5.9 42.6 51 -3.4 25.8
03:15 1017 30.03 846 24.98 5.9 42.7 51 -3.4 25.8
03:20 1017 30.03 846 24.98 6 42.8 49 -3.8 25.1
03:25 1017 30.03 846 24.98 6.1 43 49 -3.8 25.1
03:30 1017 30.03 846 24.98 6.1 43 50 -3.5 25.6
03:35 1017 30.03 846 24.98 6.1 43 49 -3.9 25
03:40 1017 30.03 846 24.98 6.3 43.4 47 -4 24.7
03:45 1017 30.03 846 24.98 6.6 43.9 46 -4.1 24.7
03:50 1017 30.03 846 24.98 6.7 44 48 -3.6 25.6
03:55 1017 30.03 846 24.98 6.5 43.8 49 -3.5 25.7
04:00 1017 30.03 846 24.98 6 42.8 51 -3.4 25.9
04:05 1017 30.03 846 24.98 5.9 42.6 52 -3.2 26.3
04:10 1017 30.03 846 24.98 6.1 43 51 -3.2 26.2
04:15 1016 30 846 24.98 6.1 43 49 -3.8 25.2
04:20 1016 30 846 24.98 6.2 43.2 51 -3.3 26.1
04:25 1016 30 846 24.98 6.3 43.3 50 -3.5 25.7
04:30 1016 30 845 24.95 6.2 43.1 49 -3.7 25.4
04:35 1016 30 845 24.95 6.3 43.4 49 -3.7 25.3
04:40 1016 30 846 24.98 6.3 43.3 53 -2.5 27.4
04:45 1016 30 845 24.95 5.4 41.8 56 -2.7 27.1
04:50 1016 30 846 24.98 5.8 42.4 49 -4.2 24.4
04:55 1016 30 846 24.98 6.6 43.9 45 -4.4 24.1
05:00 1016 30 846 24.98 7.1 44.9 44 -4.2 24.4
05:05 1016 30 846 24.98 7.1 44.8 47 -3.4 25.8
05:10 1016 30 846 24.98 6.4 43.6 50 -3.3 26.1
05:15 1016 30 845 24.95 6 42.8 49 -3.8 25.2
05:20 1016 30 845 24.95 6 42.8 53 -3 26.7
05:25 1016 30 845 24.95 5.7 42.2 54 -3 26.7
05:30 1016 30 845 24.95 5.4 41.7 53 -3.4 26
05:35 1016 30 845 24.95 5.4 41.8 53 -3.5 25.7
05:40 1016 30 845 24.95 5.6 42 52 -3.4 25.8
05:45 1016 30 845 24.95 6 42.8 48 -4.2 24.5
05:50 1016 30 845 24.95 6.7 44 46 -4.1 24.6
05:55 1016 30 845 24.95 6.3 43.4 55 -2.1 28.3
06:00 1016 30 845 24.95 4.8 40.7 59 -2.5 27.4
06:05 1016 30 845 24.95 4.9 40.7 56 -3.3 26.1
06:10 1016 30 845 24.95 5.3 41.5 52 -3.8 25.2
06:15 1016 30 845 24.95 5.6 42 54 -3 26.7
06:20 1016 30 845 24.95 5.3 41.6 55 -2.9 26.8
06:25 1016 30 845 24.95 4.8 40.6 59 -2.5 27.6
06:30 1016 30 845 24.95 5 40.9 54 -3.5 25.7
06:35 1016 30 845 24.95 5.6 42.1 54 -2.9 26.8
06:40 1016 30 845 24.95 5.5 41.9 55 -2.8 27
06:45 1016 30 845 24.95 5 40.9 61 -1.9 28.5
06:50 1016 30 845 24.95 4.5 40.2 59 -2.9 26.8
06:55 1016 30 845 24.95 4.5 40.2 58 -3.1 26.4
07:00 1016 30 845 24.95 4.8 40.6 58 -2.8 27
07:05 1016 30 845 24.95 4.5 40.1 62 -2.2 28.1
07:10 1016 30 845 24.95 4.4 39.8 60 -2.8 26.9
07:15 1015 29.97 845 24.95 4.8 40.6 58 -2.8 27
07:20 1015 29.97 845 24.95 5.1 41.1 58 -2.5 27.5
07:25 1015 29.97 845 24.95 5 41 59 -2.4 27.6
07:30 1015 29.97 845 24.95 4.9 40.9 59 -2.3 27.8
07:35 1015 29.97 845 24.95 4.8 40.7 61 -2.1 28.3
07:40 1015 29.97 845 24.95 4.7 40.5 62 -1.9 28.5
07:45 1016 30 845 24.95 4.5 40.1 60 -2.5 27.5
07:50 1016 30 845 24.95 4.4 39.9 62 -2.3 27.9
07:55 1016 30 845 24.95 4.5 40 61 -2.4 27.7
08:00 1016 30 845 24.95 4.8 40.6 60 -2.4 27.6
08:05 1016 30 845 24.95 5 40.9 59 -2.3 27.8
08:10 1016 30 845 24.95 5 41 59 -2.2 28
08:15 1016 30 845 24.95 5 41 60 -2.2 28.1
08:20 1016 30 845 24.95 4.9 40.8 60 -2.1 28.2
08:25 1016 30 846 24.98 4.8 40.7 61 -2.1 28.3
08:30 1016 30 846 24.98 4.8 40.6 62 -2 28.5
08:35 1016 30 846 24.98 4.7 40.4 62 -1.9 28.6
08:40 1017 30.03 846 24.98 4.6 40.2 63 -1.9 28.7
08:45 1017 30.03 846 24.98 4.5 40.2 64 -1.7 29
08:50 1017 30.03 846 24.98 4.3 39.8 67 -1.3 29.6
08:55 1017 30.03 846 24.98 4.1 39.3 65 -1.9 28.5
09:00 1017 30.03 846 24.98 4.3 39.7 65 -1.8 28.8
09:05 1017 30.03 846 24.98 4.4 39.9 65 -1.7 29
09:10 1017 30.03 846 24.98 4.8 40.6 64 -1.5 29.3
09:15 1017 30.03 846 24.98 5 41 63 -1.4 29.4
09:20 1017 30.03 847 25.01 4.7 40.4 66 -1.2 29.9
09:25 1017 30.03 846 24.98 4.7 40.5 64 -1.5 29.4
09:30 1017 30.03 847 25.01 5 41.1 64 -1.3 29.7
09:35 1017 30.03 847 25.01 4.9 40.8 64 -1.3 29.6
09:40 1018 30.06 847 25.01 4.9 40.9 65 -1.2 29.9
09:45 1017 30.03 847 25.01 4.9 40.7 66 -1 30.1
09:50 1018 30.06 847 25.01 4.9 40.9 65 -1.1 29.9
09:55 1017 30.03 847 25.01 5.2 41.4 64 -1 30.2
10:00 1017 30.03 847 25.01 5 41 65 -1 30.2
10:05 1018 30.06 847 25.01 4.9 40.8 66 -0.9 30.4
10:10 1018 30.06 847 25.01 5 41 68 -0.4 31.3
10:15 1018 30.06 847 25.01 4.7 40.5 71 -0 32
10:20 1017 30.03 847 25.01 4.6 40.2 71 -0.2 31.7
10:25 1017 30.03 847 25.01 4.6 40.3 71 -0.2 31.6
10:30 1017 30.03 846 24.98 5 41 70 0 32.1
10:35 1017 30.03 846 24.98 4.7 40.5 73 0.3 32.5
10:40 1017 30.03 846 24.98 4.5 40.2 73 0.1 32.3
10:45 1017 30.03 846 24.98 4.6 40.2 73 0.2 32.4
10:50 1017 30.03 846 24.98 4.6 40.2 74 0.4 32.7
10:55 1016 30 846 24.98 4.6 40.3 74 0.4 32.8
11:00 1016 30 845 24.95 4.7 40.5 74 0.4 32.8
11:05 1016 30 845 24.95 4.9 40.9 73 0.5 33
11:10 1016 30 845 24.95 5.1 41.2 73 0.6 33.1
11:15 1016 30 845 24.95 5.1 41.2 72 0.6 33.1
11:20 1016 30 845 24.95 5.1 41.1 72 0.5 32.8
11:25 1016 30 845 24.95 5.2 41.3 72 0.5 32.9
11:30 1016 30 845 24.95 5.4 41.7 70 0.4 32.8
11:35 1016 30 845 24.95 5.6 42.1 70 0.5 33
11:40 1016 30 845 24.95 5.9 42.6 68 0.4 32.8
11:45 1016 30 845 24.95 6.1 43 67 0.5 32.9
11:50 1016 30 845 24.95 6.2 43.2 66 0.4 32.7
11:55 1016 30 845 24.95 6.2 43.2 66 0.4 32.8
12:00 1016 30 845 24.95 6.5 43.7 66 0.5 33
12:05 1016 30 845 24.95 6.6 44 64 0.3 32.6
12:10 1016 30 845 24.95 6.8 44.3 63 0.2 32.4
12:15 1015 29.97 845 24.95 7.1 44.8 61 0 32
12:20 1015 29.97 845 24.95 7.2 44.9 61 0.3 32.5
12:25 1016 30 845 24.95 7.1 44.8 62 0.4 32.7
12:30 1015 29.97 845 24.95 6.9 44.4 62 0.1 32.2
12:35 1015 29.97 845 24.95 7.2 44.9 61 0.2 32.3
12:40 1015 29.97 845 24.95 6.6 44 67 0.9 33.7
12:45 1015 29.97 845 24.95 6 42.7 67 0.3 32.6
12:50 1015 29.97 844 24.92 6.3 43.3 65 0.3 32.5
12:55 1015 29.97 844 24.92 6.6 43.8 64 0.4 32.6
13:00 1015 29.97 844 24.92 6.6 44 64 0.4 32.7
13:05 1015 29.97 844 24.92 6.6 44 64 0.4 32.7
13:10 1015 29.97 844 24.92 6.6 43.9 64 0.2 32.4
13:15 1015 29.97 844 24.92 6.7 44 63 0.2 32.4
13:20 1015 29.97 844 24.92 6.7 44.1 63 0.2 32.4
13:25 1015 29.97 844 24.92 6.7 44 63 0.3 32.5
13:30 1015 29.97 844 24.92 6.8 44.2 63 0.1 32.3
13:35 1015 29.97 844 24.92 6.9 44.3 63 0.2 32.4
13:40 1015 29.97 844 24.92 6.8 44.2 63 0.2 32.3
13:45 1015 29.97 844 24.92 6.7 44.1 63 0.2 32.3
13:50 1015 29.97 844 24.92 6.8 44.2 63 0.2 32.3
13:55 1015 29.97 844 24.92 6.9 44.4 61 -0.1 31.8
14:00 1015 29.97 844 24.92 7.1 44.8 60 -0 32
14:05 1015 29.97 844 24.92 7.1 44.9 60 -0.1 31.7
14:10 1015 29.97 844 24.92 7.2 45 59 -0.3 31.4
14:15 1015 29.97 844 24.92 7.3 45.1 59 -0.2 31.6
14:20 1015 29.97 844 24.92 7.3 45.1 59 -0.1 31.8
14:25 1015 29.97 844 24.92 7.1 44.8 60 -0.1 31.8
14:30 1015 29.97 844 24.92 7.1 44.7 60 -0.1 31.9
14:35 1015 29.97 844 24.92 7 44.6 61 0 32
14:40 1015 29.97 844 24.92 6.9 44.3 63 0.3 32.5
14:45 1015 29.97 844 24.92 6.5 43.7 65 0.4 32.7
14:50 1015 29.97 844 24.92 5.9 42.6 67 0.4 32.7
14:55 1015 29.97 844 24.92 5.6 42.1 69 0.3 32.5
15:00 1015 29.97 844 24.92 5.4 41.7 69 0.1 32.2
15:05 1015 29.97 844 24.92 5.5 41.8 67 -0.1 31.9
15:10 1015 29.97 844 24.92 5.5 42 67 -0 32
15:15 1015 29.97 844 24.92 5.6 42.1 67 0 32
15:20 1015 29.97 844 24.92 5.5 41.9 67 -0.1 31.9
15:25 1015 29.97 844 24.92 5.4 41.7 68 -0.1 31.8
15:30 1015 29.97 844 24.92 5.4 41.7 67 -0.2 31.6
15:35 1015 29.97 844 24.92 5.4 41.8 67 -0.2 31.6
15:40 1014 29.94 844 24.92 5.5 41.8 66 -0.4 31.2
15:45 1014 29.94 844 24.92 5.8 42.4 63 -0.6 30.9
15:50 1014 29.94 844 24.92 6 42.9 62 -0.7 30.8
15:55 1014 29.94 844 24.92 6.2 43.2 60 -0.9 30.4
16:00 1014 29.94 844 24.92 6.5 43.8 60 -0.6 30.9
16:05 1014 29.94 844 24.92 6.5 43.8 61 -0.4 31.4
16:10 1014 29.94 844 24.92 6.4 43.5 61 -0.5 31.2
16:15 1014 29.94 844 24.92 6.3 43.4 63 -0.3 31.5
16:20 1014 29.94 844 24.92 6.2 43.1 63 -0.3 31.4
16:25 1015 29.97 844 24.92 6 42.9 63 -0.4 31.3
16:30 1015 29.97 844 24.92 5.8 42.4 64 -0.4 31.3
16:35 1015 29.97 844 24.92 5.6 42.1 64 -0.5 31
16:40 1015 29.97 844 24.92 5.6 42.2 65 -0.4 31.3
16:45 1015 29.97 844 24.92 5.7 42.2 65 -0.4 31.2
16:50 1015 29.97 844 24.92 5.6 42.1 66 -0.3 31.4
16:55 1015 29.97 844 24.92 5.6 42.1 65 -0.4 31.3
17:00 1015 29.97 844 24.92 5.6 42 67 -0.1 31.8
17:05 1015 29.97 844 24.92 5.1 41.2 68 -0.2 31.7
17:10 1015 29.97 844 24.92 4.9 40.8 70 -0.2 31.6
17:15 1015 29.97 844 24.92 4.8 40.7 69 -0.4 31.3
17:20 1015 29.97 844 24.92 4.8 40.6 69 -0.3 31.4
17:25 1015 29.97 844 24.92 4.8 40.6 69 -0.4 31.4
17:30 1015 29.97 844 24.92 4.7 40.5 69 -0.4 31.2
17:35 1015 29.97 844 24.92 4.7 40.4 69 -0.5 31.2
17:40 1015 29.97 844 24.92 4.6 40.3 70 -0.5 31.2
17:45 1015 29.97 844 24.92 4.5 40.2 69 -0.6 30.9
17:50 1015 29.97 844 24.92 5 41 67 -0.7 30.8
17:55 1015 29.97 844 24.92 5.3 41.5 65 -0.7 30.8
18:00 1015 29.97 844 24.92 5.3 41.5 63 -1.1 30
18:05 1015 29.97 844 24.92 5.5 41.8 65 -0.5 31.1
18:10 1015 29.97 844 24.92 5.1 41.2 66 -0.6 30.9
18:15 1015 29.97 844 24.92 4.5 40.1 70 -0.5 31.1
18:20 1015 29.97 844 24.92 4.6 40.4 67 -0.9 30.4
18:25 1015 29.97 844 24.92 4.3 39.8 70 -0.7 30.8
18:30 1015 29.97 844 24.92 4.3 39.7 69 -1 30.2
18:35 1015 29.97 844 24.92 4.3 39.8 69 -0.9 30.3
18:40 1015 29.97 844 24.92 4.2 39.6 69 -0.9 30.4
18:45 1015 29.97 844 24.92 4.4 39.9 67 -1.2 29.8
18:50 1015 29.97 844 24.92 4.6 40.3 68 -0.9 30.5
18:55 1014 29.94 844 24.92 4.6 40.3 66 -1.3 29.7
19:00 1014 29.94 844 24.92 5.2 41.4 62 -1.4 29.5
19:05 1014 29.94 843 24.89 5.2 41.4 63 -1.2 29.8
19:10 1014 29.94 843 24.89 4.9 40.9 64 -1.3 29.6
19:15 1014 29.94 843 24.89 4.8 40.6 66 -1 30.3
19:20 1014 29.94 843 24.89 4.6 40.3 66 -1.2 29.8
19:25 1014 29.94 843 24.89 4.5 40.1 66 -1.2 29.9
19:30 1014 29.94 843 24.89 4.6 40.3 65 -1.5 29.3
19:35 1014 29.94 843 24.89 4.8 40.6 65 -1.2 29.8
19:40 1014 29.94 843 24.89 4.7 40.5 62 -2 28.4
19:45 1014 29.94 843 24.89 5.5 41.8 57 -2.4 27.7
19:50 1014 29.94 843 24.89 5.8 42.5 56 -2.1 28.2
19:55 1014 29.94 843 24.89 6 42.8 58 -1.6 29.1
20:00 1014 29.94 843 24.89 5.6 42.1 59 -1.9 28.6
20:05 1014 29.94 843 24.89 5.5 42 59 -1.9 28.6
20:10 1014 29.94 843 24.89 5.5 41.8 59 -1.9 28.5
20:15 1014 29.94 843 24.89 5.4 41.8 57 -2.3 27.9
20:20 1014 29.94 843 24.89 5.5 42 58 -2.2 28.1
20:25 1014 29.94 843 24.89 5.4 41.7 62 -1.4 29.5
20:30 1014 29.94 843 24.89 4.5 40.1 66 -1.2 29.8
20:35 1014 29.94 843 24.89 4 39.2 67 -1.5 29.4
20:40 1014 29.94 843 24.89 3.9 38.9 68 -1.6 29.1
20:45 1014 29.94 843 24.89 3.9 39 68 -1.6 29.2
20:50 1014 29.94 843 24.89 3.9 39 67 -1.6 29.1
20:55 1014 29.94 843 24.89 3.8 38.9 68 -1.5 29.2
21:00 1014 29.94 843 24.89 3.9 38.9 67 -1.7 28.9
21:05 1014 29.94 843 24.89 3.9 39.1 67 -1.7 29
21:10 1014 29.94 843 24.89 4 39.1 66 -1.7 28.9
21:15 1014 29.94 843 24.89 4.1 39.5 64 -2 28.3
21:20 1014 29.94 843 24.89 4.5 40.1 62 -2.1 28.3
21:25 1014 29.94 843 24.89 4.7 40.4 61 -2.1 28.2
21:30 1013 29.91 843 24.89 4.8 40.7 62 -1.8 28.7
21:35 1013 29.91 843 24.89 4.9 40.8 60 -2.3 27.8
21:40 1013 29.91 843 24.89 5 40.9 60 -2.1 28.3
21:45 1013 29.91 843 24.89 4.8 40.6 61 -2.1 28.3
21:50 1013 29.91 843 24.89 4.7 40.5 61 -2.1 28.2
21:55 1013 29.91 842 24.86 4.8 40.6 60 -2.2 28
22:00 1013 29.91 842 24.86 4.8 40.7 61 -2.1 28.3
22:05 1013 29.91 842 24.86 4.8 40.7 61 -2.2 28.1
22:10 1013 29.91 842 24.86 4.7 40.4 63 -1.8 28.7
22:15 1013 29.91 842 24.86 4.5 40 61 -2.5 27.6
22:20 1013 29.91 842 24.86 4.8 40.6 60 -2.3 27.9
22:25 1013 29.91 842 24.86 5 41 58 -2.5 27.6
22:30 1013 29.91 842 24.86 5 41.1 58 -2.4 27.6
22:35 1013 29.91 842 24.86 5 41.1 59 -2.3 27.9
22:40 1013 29.91 842 24.86 5 41 58 -2.5 27.5
22:45 1013 29.91 842 24.86 5.1 41.2 59 -2.2 28.1
22:50 1013 29.91 842 24.86 4.9 40.8 60 -2.3 27.9
22:55 1013 29.91 842 24.86 4.8 40.7 60 -2.2 28
23:00 1012 29.88 842 24.86 4.7 40.5 61 -2.2 28
23:05 1012 29.88 842 24.86 4.6 40.2 62 -2 28.4
23:10 1012 29.88 842 24.86 4.5 40.1 61 -2.3 27.9
23:15 1012 29.88 842 24.86 4.6 40.3 61 -2.1 28.2
23:20 1012 29.88 841 24.83 4.7 40.5 61 -2.1 28.2
23:25 1012 29.88 841 24.83 4.7 40.4 61 -2.2 28
23:30 1012 29.88 841 24.83 4.7 40.5 61 -2.1 28.2
23:35 1012 29.88 841 24.83 4.7 40.4 61 -2.2 28.1
23:40 1012 29.88 841 24.83 4.6 40.3 61 -2.2 28
23:45 1012 29.88 841 24.83 4.5 40.1 62 -2.2 28
23:50 1012 29.88 841 24.83 4.6 40.3 60 -2.4 27.7
23:55 1012 29.88 841 24.83 4.8 40.7 60 -2.2 28
24:00 1012 29.88 841 24.83 4.7 40.5 60 -2.4 27.7